Time;durP1;ratioP1;P1;durP2;ratioP2;P2;SDS_P1;SDS_P2;PMS_P1;PMS_P2;Temp;Humidity;BMP_temperature;BMP_pressure;BME280_temperature;BME280_humidity;BME280_pressure;Samples;Min_cycle;Max_cycle;Signal;HPM_P1;HPM_P2
2020/02/18 00:00:05;;;;;;;0.9;0.8;;;;;;;7.34;75.79785;95824.31;;;;
2020/02/18 00:01:06;;;;;;;0.9;0.8;;;;;;;7.34;75.79785;95824.31;;;;
2020/02/18 00:02:06;;;;;;;0.9;0.8;;;;;;;7.34;75.79785;95824.31;;;;
2020/02/18 00:03:07;;;;;;;0.9;0.8;;;;;;;7.34;75.79785;95824.31;;;;
2020/02/18 00:04:07;;;;;;;0.9;0.8;;;;;;;7.34;75.79785;95824.31;;;;
2020/02/18 00:05:08;;;;;;;0.9;0.8;;;;;;;7.34;75.79785;95824.31;;;;
2020/02/18 00:06:08;;;;;;;0.9;0.8;;;;;;;7.34;75.79785;95824.31;;;;
2020/02/18 00:07:08;;;;;;;0.9;0.8;;;;;;;7.34;75.79785;95824.31;;;;
2020/02/18 00:08:09;;;;;;;1.7;0.8;;;;;;;7.35;75.40527;95812.64;;;;
2020/02/18 00:09:10;;;;;;;1.7;0.8;;;;;;;7.35;75.40527;95812.64;;;;
2020/02/18 00:10:12;;;;;;;1.7;0.8;;;;;;;7.35;75.40527;95812.64;;;;
2020/02/18 00:11:14;;;;;;;1.7;0.8;;;;;;;7.35;75.40527;95812.64;;;;
2020/02/18 00:12:15;;;;;;;1.7;0.8;;;;;;;7.35;75.40527;95812.64;;;;
2020/02/18 00:13:15;;;;;;;1.7;0.8;;;;;;;7.35;75.40527;95812.64;;;;
2020/02/18 00:14:16;;;;;;;1.7;0.8;;;;;;;7.35;75.40527;95812.64;;;;
2020/02/18 00:15:16;;;;;;;1.7;0.8;;;;;;;7.35;75.40527;95812.64;;;;
2020/02/18 00:16:17;;;;;;;1.7;0.8;;;;;;;7.35;75.40527;95812.64;;;;
2020/02/18 00:17:18;;;;;;;1.7;0.8;;;;;;;7.35;75.40527;95812.64;;;;
2020/02/18 00:18:18;;;;;;;1.7;0.8;;;;;;;7.35;75.40527;95812.64;;;;
2020/02/18 00:19:19;;;;;;;1.2;0.8;;;;;;;7.39;75.00977;95817.81;;;;
2020/02/18 00:20:19;;;;;;;1.2;0.8;;;;;;;7.39;75.00977;95817.81;;;;
2020/02/18 00:21:20;;;;;;;1.2;0.8;;;;;;;7.39;75.00977;95817.81;;;;
2020/02/18 00:22:20;;;;;;;1.2;0.8;;;;;;;7.39;75.00977;95817.81;;;;
2020/02/18 00:23:21;;;;;;;1.2;0.8;;;;;;;7.39;75.00977;95817.81;;;;
2020/02/18 00:24:21;;;;;;;1.2;0.8;;;;;;;7.39;75.00977;95817.81;;;;
2020/02/18 00:25:21;;;;;;;1.2;0.8;;;;;;;7.39;75.00977;95817.81;;;;
2020/02/18 00:26:22;;;;;;;1.2;0.8;;;;;;;7.39;75.00977;95817.81;;;;
2020/02/18 00:27:23;;;;;;;1.2;0.8;;;;;;;7.39;75.00977;95817.81;;;;
2020/02/18 00:28:23;;;;;;;1.2;0.8;;;;;;;7.39;75.00977;95817.81;;;;
2020/02/18 00:29:24;;;;;;;1.2;0.8;;;;;;;7.39;75.00977;95817.81;;;;
2020/02/18 00:30:24;;;;;;;1.2;0.8;;;;;;;7.39;75.00977;95817.81;;;;
2020/02/18 00:31:25;;;;;;;1.2;0.8;;;;;;;7.39;75.00977;95817.81;;;;
2020/02/18 00:32:26;;;;;;;1.2;0.8;;;;;;;7.39;75.00977;95817.81;;;;
2020/02/18 00:33:26;;;;;;;1.2;0.8;;;;;;;7.39;75.00977;95817.81;;;;
2020/02/18 00:34:27;;;;;;;1.2;0.8;;;;;;;7.39;75.00977;95817.81;;;;
2020/02/18 00:35:27;;;;;;;1.2;0.8;;;;;;;7.39;75.00977;95817.81;;;;
2020/02/18 00:36:28;;;;;;;1.2;0.8;;;;;;;7.39;75.00977;95817.81;;;;
2020/02/18 00:37:28;;;;;;;1.2;0.8;;;;;;;7.39;75.00977;95817.81;;;;
2020/02/18 00:38:28;;;;;;;1.2;0.8;;;;;;;7.39;75.00977;95817.81;;;;
2020/02/18 00:39:29;;;;;;;1.2;0.8;;;;;;;7.39;75.00977;95817.81;;;;
2020/02/18 00:40:29;;;;;;;2.2;1.4;;;;;;;7.4;74.26758;95807.4;;;;
2020/02/18 00:41:30;;;;;;;2.2;1.4;;;;;;;7.4;74.26758;95807.4;;;;
2020/02/18 00:42:30;;;;;;;2.2;1.4;;;;;;;7.4;74.26758;95807.4;;;;
2020/02/18 00:43:31;;;;;;;2.2;1.4;;;;;;;7.4;74.26758;95807.4;;;;
2020/02/18 00:44:31;;;;;;;2.2;1.4;;;;;;;7.4;74.26758;95807.4;;;;
2020/02/18 00:45:32;;;;;;;2.2;1.4;;;;;;;7.4;74.26758;95807.4;;;;
2020/02/18 00:46:32;;;;;;;2.2;1.4;;;;;;;7.4;74.26758;95807.4;;;;
2020/02/18 00:47:33;;;;;;;2.2;1.4;;;;;;;7.4;74.26758;95807.4;;;;
2020/02/18 00:48:33;;;;;;;2.2;1.4;;;;;;;7.4;74.26758;95807.4;;;;
2020/02/18 00:49:34;;;;;;;2.2;1.4;;;;;;;7.4;74.26758;95807.4;;;;
2020/02/18 00:50:34;;;;;;;3.15;1;;;;;;;7.27;74.38379;95819.02;;;;
2020/02/18 00:51:35;;;;;;;3.15;1;;;;;;;7.27;74.38379;95819.02;;;;
2020/02/18 00:52:35;;;;;;;3.15;1;;;;;;;7.27;74.38379;95819.02;;;;
2020/02/18 00:53:36;;;;;;;3.15;1;;;;;;;7.27;74.38379;95819.02;;;;
2020/02/18 00:54:36;;;;;;;3.15;1;;;;;;;7.27;74.38379;95819.02;;;;
2020/02/18 00:55:36;;;;;;;3.15;1;;;;;;;7.27;74.38379;95819.02;;;;
2020/02/18 00:56:37;;;;;;;3.15;1;;;;;;;7.27;74.38379;95819.02;;;;
2020/02/18 00:57:37;;;;;;;3.15;1;;;;;;;7.27;74.38379;95819.02;;;;
2020/02/18 00:58:38;;;;;;;3.15;1;;;;;;;7.27;74.38379;95819.02;;;;
2020/02/18 00:59:38;;;;;;;3.15;1;;;;;;;7.27;74.38379;95819.02;;;;
2020/02/18 01:00:39;;;;;;;3.15;1;;;;;;;7.27;74.38379;95819.02;;;;
2020/02/18 01:01:49;;;;;;;2.45;1.1;;;;;;;7.2;74.54199;95850.41;;;;
2020/02/18 01:02:50;;;;;;;2.45;1.1;;;;;;;7.2;74.54199;95850.41;;;;
2020/02/18 01:03:50;;;;;;;2.45;1.1;;;;;;;7.2;74.54199;95850.41;;;;
2020/02/18 01:04:52;;;;;;;2.45;1.1;;;;;;;7.2;74.54199;95850.41;;;;
2020/02/18 01:05:58;;;;;;;2.45;1.1;;;;;;;7.2;74.54199;95850.41;;;;
2020/02/18 01:07:04;;;;;;;2.45;1.1;;;;;;;7.2;74.54199;95850.41;;;;
2020/02/18 01:09:18;;;;;;;2.45;1.1;;;;;;;7.2;74.54199;95850.41;;;;
2020/02/18 01:12:26;;;;;;;2.35;1;;;;;;;7.1;74.75781;95875.89;;;;
2020/02/18 01:13:47;;;;;;;2.35;1;;;;;;;7.1;74.75781;95875.89;;;;
2020/02/18 01:14:51;;;;;;;2.35;1;;;;;;;7.1;74.75781;95875.89;;;;
2020/02/18 01:15:56;;;;;;;2.35;1;;;;;;;7.1;74.75781;95875.89;;;;
2020/02/18 01:16:56;;;;;;;2.35;1;;;;;;;7.1;74.75781;95875.89;;;;
2020/02/18 01:17:57;;;;;;;2.35;1;;;;;;;7.1;74.75781;95875.89;;;;
2020/02/18 01:18:58;;;;;;;2.35;1;;;;;;;7.1;74.75781;95875.89;;;;
2020/02/18 01:19:58;;;;;;;2.35;1;;;;;;;7.1;74.75781;95875.89;;;;
2020/02/18 01:20:58;;;;;;;2.35;1;;;;;;;7.1;74.75781;95875.89;;;;
2020/02/18 01:21:59;;;;;;;2.35;1;;;;;;;7.1;74.75781;95875.89;;;;
2020/02/18 01:23:00;;;;;;;1.8;0.9;;;;;;;7.08;74.31738;95882.48;;;;
2020/02/18 01:24:00;;;;;;;1.8;0.9;;;;;;;7.08;74.31738;95882.48;;;;
2020/02/18 01:25:00;;;;;;;1.8;0.9;;;;;;;7.08;74.31738;95882.48;;;;
2020/02/18 01:26:01;;;;;;;1.8;0.9;;;;;;;7.08;74.31738;95882.48;;;;
2020/02/18 01:27:01;;;;;;;1.8;0.9;;;;;;;7.08;74.31738;95882.48;;;;
2020/02/18 01:28:02;;;;;;;1.8;0.9;;;;;;;7.08;74.31738;95882.48;;;;
2020/02/18 01:29:02;;;;;;;1.8;0.9;;;;;;;7.08;74.31738;95882.48;;;;
2020/02/18 01:30:03;;;;;;;1.8;0.9;;;;;;;7.08;74.31738;95882.48;;;;
2020/02/18 01:31:12;;;;;;;1.8;0.9;;;;;;;7.08;74.31738;95882.48;;;;
2020/02/18 01:32:13;;;;;;;1.8;0.9;;;;;;;7.08;74.31738;95882.48;;;;
2020/02/18 01:33:13;;;;;;;1.9;0.75;;;;;;;6.8;73.95215;95889.24;;;;
2020/02/18 01:34:14;;;;;;;1.9;0.75;;;;;;;6.8;73.95215;95889.24;;;;
2020/02/18 01:35:14;;;;;;;1.9;0.75;;;;;;;6.8;73.95215;95889.24;;;;
2020/02/18 01:36:14;;;;;;;1.9;0.75;;;;;;;6.8;73.95215;95889.24;;;;
2020/02/18 01:37:15;;;;;;;1.9;0.75;;;;;;;6.8;73.95215;95889.24;;;;
2020/02/18 01:38:15;;;;;;;1.9;0.75;;;;;;;6.8;73.95215;95889.24;;;;
2020/02/18 01:39:16;;;;;;;1.9;0.75;;;;;;;6.8;73.95215;95889.24;;;;
2020/02/18 01:40:21;;;;;;;1.9;0.75;;;;;;;6.8;73.95215;95889.24;;;;
2020/02/18 01:41:21;;;;;;;1.9;0.75;;;;;;;6.8;73.95215;95889.24;;;;
2020/02/18 01:42:21;;;;;;;1.9;0.75;;;;;;;6.8;73.95215;95889.24;;;;
2020/02/18 01:43:22;;;;;;;1.9;0.75;;;;;;;6.8;73.95215;95889.24;;;;
2020/02/18 01:44:22;;;;;;;1.45;0.8;;;;;;;6.54;73.9707;95896.72;;;;
2020/02/18 01:45:25;;;;;;;1.45;0.8;;;;;;;6.54;73.9707;95896.72;;;;
2020/02/18 01:46:25;;;;;;;1.45;0.8;;;;;;;6.54;73.9707;95896.72;;;;
2020/02/18 01:47:26;;;;;;;1.45;0.8;;;;;;;6.54;73.9707;95896.72;;;;
2020/02/18 01:48:26;;;;;;;1.45;0.8;;;;;;;6.54;73.9707;95896.72;;;;
2020/02/18 01:49:27;;;;;;;1.45;0.8;;;;;;;6.54;73.9707;95896.72;;;;
2020/02/18 01:50:27;;;;;;;1.45;0.8;;;;;;;6.54;73.9707;95896.72;;;;
2020/02/18 01:51:28;;;;;;;1.45;0.8;;;;;;;6.54;73.9707;95896.72;;;;
2020/02/18 01:52:29;;;;;;;1.45;0.8;;;;;;;6.54;73.9707;95896.72;;;;
2020/02/18 01:53:30;;;;;;;1.45;0.8;;;;;;;6.54;73.9707;95896.72;;;;
2020/02/18 01:54:31;;;;;;;2.55;0.95;;;;;;;6.22;73.89551;95901.75;;;;
2020/02/18 01:55:33;;;;;;;2.55;0.95;;;;;;;6.22;73.89551;95901.75;;;;
2020/02/18 01:56:34;;;;;;;2.55;0.95;;;;;;;6.22;73.89551;95901.75;;;;
2020/02/18 01:57:35;;;;;;;2.55;0.95;;;;;;;6.22;73.89551;95901.75;;;;
2020/02/18 01:58:35;;;;;;;2.55;0.95;;;;;;;6.22;73.89551;95901.75;;;;
2020/02/18 01:59:36;;;;;;;2.55;0.95;;;;;;;6.22;73.89551;95901.75;;;;
2020/02/18 02:00:37;;;;;;;2.55;0.95;;;;;;;6.22;73.89551;95901.75;;;;
2020/02/18 02:01:37;;;;;;;2.55;0.95;;;;;;;6.22;73.89551;95901.75;;;;
2020/02/18 02:02:38;;;;;;;2.55;0.95;;;;;;;6.22;73.89551;95901.75;;;;
2020/02/18 02:03:40;;;;;;;2.55;0.95;;;;;;;6.22;73.89551;95901.75;;;;
2020/02/18 02:04:41;;;;;;;2.55;0.95;;;;;;;6.22;73.89551;95901.75;;;;
2020/02/18 02:05:42;;;;;;;1.6;0.8;;;;;;;5.98;73.99219;95902.56;;;;
2020/02/18 02:06:44;;;;;;;1.6;0.8;;;;;;;5.98;73.99219;95902.56;;;;
2020/02/18 02:07:49;;;;;;;1.6;0.8;;;;;;;5.98;73.99219;95902.56;;;;
2020/02/18 02:08:54;;;;;;;1.6;0.8;;;;;;;5.98;73.99219;95902.56;;;;
2020/02/18 02:09:55;;;;;;;1.6;0.8;;;;;;;5.98;73.99219;95902.56;;;;
2020/02/18 02:10:56;;;;;;;1.6;0.8;;;;;;;5.98;73.99219;95902.56;;;;
2020/02/18 02:11:59;;;;;;;1.6;0.8;;;;;;;5.98;73.99219;95902.56;;;;
2020/02/18 02:13:03;;;;;;;1.6;0.8;;;;;;;5.98;73.99219;95902.56;;;;
2020/02/18 02:14:04;;;;;;;1.6;0.8;;;;;;;5.98;73.99219;95902.56;;;;
2020/02/18 02:15:06;;;;;;;1.6;0.8;;;;;;;5.98;73.99219;95902.56;;;;
2020/02/18 02:16:09;;;;;;;1.1;0.75;;;;;;;5.71;74.24219;95918.45;;;;
2020/02/18 02:17:12;;;;;;;1.1;0.75;;;;;;;5.71;74.24219;95918.45;;;;
2020/02/18 02:18:16;;;;;;;1.1;0.75;;;;;;;5.71;74.24219;95918.45;;;;
2020/02/18 02:19:18;;;;;;;1.1;0.75;;;;;;;5.71;74.24219;95918.45;;;;
2020/02/18 02:20:24;;;;;;;1.1;0.75;;;;;;;5.71;74.24219;95918.45;;;;
2020/02/18 02:21:49;;;;;;;1.1;0.75;;;;;;;5.71;74.24219;95918.45;;;;
2020/02/18 02:23:21;;;;;;;1.1;0.75;;;;;;;5.71;74.24219;95918.45;;;;
2020/02/18 02:24:50;;;;;;;1.1;0.75;;;;;;;5.71;74.24219;95918.45;;;;
2020/02/18 02:25:58;;;;;;;1.1;0.75;;;;;;;5.71;74.24219;95918.45;;;;
2020/02/18 02:27:03;;;;;;;2.15;1;;;;;;;5.54;74.63574;95931.36;;;;
2020/02/18 02:28:05;;;;;;;2.15;1;;;;;;;5.54;74.63574;95931.36;;;;
2020/02/18 02:29:12;;;;;;;2.15;1;;;;;;;5.54;74.63574;95931.36;;;;
2020/02/18 02:30:21;;;;;;;2.15;1;;;;;;;5.54;74.63574;95931.36;;;;
2020/02/18 02:31:25;;;;;;;2.15;1;;;;;;;5.54;74.63574;95931.36;;;;
2020/02/18 02:32:29;;;;;;;2.15;1;;;;;;;5.54;74.63574;95931.36;;;;
2020/02/18 02:33:31;;;;;;;2.15;1;;;;;;;5.54;74.63574;95931.36;;;;
2020/02/18 02:34:34;;;;;;;2.15;1;;;;;;;5.54;74.63574;95931.36;;;;
2020/02/18 02:35:39;;;;;;;2.15;1;;;;;;;5.54;74.63574;95931.36;;;;
2020/02/18 02:36:44;;;;;;;1.2;1;;;;;;;5.39;75.15918;95935.91;;;;
2020/02/18 02:37:57;;;;;;;1.2;1;;;;;;;5.39;75.15918;95935.91;;;;
2020/02/18 02:39:03;;;;;;;1.2;1;;;;;;;5.39;75.15918;95935.91;;;;
2020/02/18 02:40:08;;;;;;;1.2;1;;;;;;;5.39;75.15918;95935.91;;;;
2020/02/18 02:41:09;;;;;;;1.2;1;;;;;;;5.39;75.15918;95935.91;;;;
2020/02/18 02:42:17;;;;;;;1.2;1;;;;;;;5.39;75.15918;95935.91;;;;
2020/02/18 02:43:22;;;;;;;1.2;1;;;;;;;5.39;75.15918;95935.91;;;;
2020/02/18 02:44:29;;;;;;;1.2;1;;;;;;;5.39;75.15918;95935.91;;;;
2020/02/18 02:45:34;;;;;;;1.2;1;;;;;;;5.39;75.15918;95935.91;;;;
2020/02/18 02:46:39;;;;;;;1.2;1;;;;;;;5.39;75.15918;95935.91;;;;
2020/02/18 02:47:44;;;;;;;1.1;0.9;;;;;;;5.48;75.26074;95947.75;;;;
2020/02/18 02:48:44;;;;;;;1.1;0.9;;;;;;;5.48;75.26074;95947.75;;;;
2020/02/18 02:49:47;;;;;;;1.1;0.9;;;;;;;5.48;75.26074;95947.75;;;;
2020/02/18 02:50:49;;;;;;;1.1;0.9;;;;;;;5.48;75.26074;95947.75;;;;
2020/02/18 02:51:49;;;;;;;1.1;0.9;;;;;;;5.48;75.26074;95947.75;;;;
2020/02/18 02:52:52;;;;;;;1.1;0.9;;;;;;;5.48;75.26074;95947.75;;;;
2020/02/18 02:53:53;;;;;;;1.1;0.9;;;;;;;5.48;75.26074;95947.75;;;;
2020/02/18 02:54:53;;;;;;;1.1;0.9;;;;;;;5.48;75.26074;95947.75;;;;
2020/02/18 02:55:54;;;;;;;1.1;0.9;;;;;;;5.48;75.26074;95947.75;;;;
2020/02/18 02:56:54;;;;;;;1.1;0.9;;;;;;;5.48;75.26074;95947.75;;;;
2020/02/18 02:57:56;;;;;;;1.6;0.9;;;;;;;5.35;75.04688;95960.89;;;;
2020/02/18 02:58:58;;;;;;;1.6;0.9;;;;;;;5.35;75.04688;95960.89;;;;
2020/02/18 03:00:02;;;;;;;1.6;0.9;;;;;;;5.35;75.04688;95960.89;;;;
2020/02/18 03:01:11;;;;;;;1.6;0.9;;;;;;;5.35;75.04688;95960.89;;;;
2020/02/18 03:02:12;;;;;;;1.6;0.9;;;;;;;5.35;75.04688;95960.89;;;;
2020/02/18 03:03:15;;;;;;;1.6;0.9;;;;;;;5.35;75.04688;95960.89;;;;
2020/02/18 03:04:19;;;;;;;1.6;0.9;;;;;;;5.35;75.04688;95960.89;;;;
2020/02/18 03:05:20;;;;;;;1.6;0.9;;;;;;;5.35;75.04688;95960.89;;;;
2020/02/18 03:06:22;;;;;;;1.6;0.9;;;;;;;5.35;75.04688;95960.89;;;;
2020/02/18 03:07:47;;;;;;;1.6;0.9;;;;;;;5.35;75.04688;95960.89;;;;
2020/02/18 03:09:04;;;;;;;2.7;1;;;;;;;5.28;75.11914;95970.28;;;;
2020/02/18 03:11:15;;;;;;;2.7;1;;;;;;;5.28;75.11914;95970.28;;;;
2020/02/18 03:22:45;;;;;;;2.75;0.95;;;;;;;5.24;75.02734;95979.69;;;;
2020/02/18 03:23:45;;;;;;;2.75;0.95;;;;;;;5.24;75.02734;95979.69;;;;
2020/02/18 03:24:46;;;;;;;2.75;0.95;;;;;;;5.24;75.02734;95979.69;;;;
2020/02/18 03:25:46;;;;;;;2.75;0.95;;;;;;;5.24;75.02734;95979.69;;;;
2020/02/18 03:26:47;;;;;;;2.75;0.95;;;;;;;5.24;75.02734;95979.69;;;;
2020/02/18 03:27:48;;;;;;;2.75;0.95;;;;;;;5.24;75.02734;95979.69;;;;
2020/02/18 03:28:48;;;;;;;2.75;0.95;;;;;;;5.24;75.02734;95979.69;;;;
2020/02/18 03:29:49;;;;;;;1.15;0.9;;;;;;;5.25;74.68164;95986.19;;;;
2020/02/18 03:30:49;;;;;;;1.15;0.9;;;;;;;5.25;74.68164;95986.19;;;;
2020/02/18 03:31:49;;;;;;;1.15;0.9;;;;;;;5.25;74.68164;95986.19;;;;
2020/02/18 03:32:50;;;;;;;1.15;0.9;;;;;;;5.25;74.68164;95986.19;;;;
2020/02/18 03:33:50;;;;;;;1.15;0.9;;;;;;;5.25;74.68164;95986.19;;;;
2020/02/18 03:34:51;;;;;;;1.15;0.9;;;;;;;5.25;74.68164;95986.19;;;;
2020/02/18 03:35:51;;;;;;;1.15;0.9;;;;;;;5.25;74.68164;95986.19;;;;
2020/02/18 03:36:52;;;;;;;1.15;0.9;;;;;;;5.25;74.68164;95986.19;;;;
2020/02/18 03:37:52;;;;;;;1.15;0.9;;;;;;;5.25;74.68164;95986.19;;;;
2020/02/18 03:38:53;;;;;;;1.15;0.9;;;;;;;5.25;74.68164;95986.19;;;;
2020/02/18 03:40:54;;;;;;;1.15;0.9;;;;;;;5.25;74.68164;95986.19;;;;
2020/02/18 03:41:56;;;;;;;3.75;1.3;;;;;;;5.04;74.68848;96002.17;;;;
2020/02/18 03:42:59;;;;;;;3.75;1.3;;;;;;;5.04;74.68848;96002.17;;;;
2020/02/18 03:44:02;;;;;;;3.75;1.3;;;;;;;5.04;74.68848;96002.17;;;;
2020/02/18 03:45:03;;;;;;;3.75;1.3;;;;;;;5.04;74.68848;96002.17;;;;
2020/02/18 03:46:03;;;;;;;3.75;1.3;;;;;;;5.04;74.68848;96002.17;;;;
2020/02/18 03:47:07;;;;;;;3.75;1.3;;;;;;;5.04;74.68848;96002.17;;;;
2020/02/18 03:48:07;;;;;;;3.75;1.3;;;;;;;5.04;74.68848;96002.17;;;;
2020/02/18 03:49:10;;;;;;;3.75;1.3;;;;;;;5.04;74.68848;96002.17;;;;
2020/02/18 03:50:13;;;;;;;3.75;1.3;;;;;;;5.04;74.68848;96002.17;;;;
2020/02/18 03:51:13;;;;;;;2.3;0.95;;;;;;;4.89;74.93555;96005.86;;;;
2020/02/18 03:52:21;;;;;;;2.3;0.95;;;;;;;4.89;74.93555;96005.86;;;;
2020/02/18 03:53:21;;;;;;;2.3;0.95;;;;;;;4.89;74.93555;96005.86;;;;
2020/02/18 03:54:22;;;;;;;2.3;0.95;;;;;;;4.89;74.93555;96005.86;;;;
2020/02/18 03:55:22;;;;;;;2.3;0.95;;;;;;;4.89;74.93555;96005.86;;;;
2020/02/18 03:56:26;;;;;;;2.3;0.95;;;;;;;4.89;74.93555;96005.86;;;;
2020/02/18 03:57:30;;;;;;;2.3;0.95;;;;;;;4.89;74.93555;96005.86;;;;
2020/02/18 03:58:33;;;;;;;2.3;0.95;;;;;;;4.89;74.93555;96005.86;;;;
2020/02/18 03:59:35;;;;;;;2.3;0.95;;;;;;;4.89;74.93555;96005.86;;;;
2020/02/18 04:00:38;;;;;;;2.3;0.95;;;;;;;4.89;74.93555;96005.86;;;;
2020/02/18 04:01:40;;;;;;;1.4;1;;;;;;;4.7;74.99902;96005.88;;;;
2020/02/18 04:02:41;;;;;;;1.4;1;;;;;;;4.7;74.99902;96005.88;;;;
2020/02/18 04:03:42;;;;;;;1.4;1;;;;;;;4.7;74.99902;96005.88;;;;
2020/02/18 04:04:42;;;;;;;1.4;1;;;;;;;4.7;74.99902;96005.88;;;;
2020/02/18 04:05:43;;;;;;;1.4;1;;;;;;;4.7;74.99902;96005.88;;;;
2020/02/18 04:06:43;;;;;;;1.4;1;;;;;;;4.7;74.99902;96005.88;;;;
2020/02/18 04:07:44;;;;;;;1.4;1;;;;;;;4.7;74.99902;96005.88;;;;
2020/02/18 04:08:44;;;;;;;1.4;1;;;;;;;4.7;74.99902;96005.88;;;;
2020/02/18 04:09:45;;;;;;;1.4;1;;;;;;;4.7;74.99902;96005.88;;;;
2020/02/18 04:10:45;;;;;;;1.4;1;;;;;;;4.7;74.99902;96005.88;;;;
2020/02/18 04:11:46;;;;;;;1.4;1;;;;;;;4.7;74.99902;96005.88;;;;
2020/02/18 04:12:46;;;;;;;0.8;0.8;;;;;;;4.57;75.34375;96017.69;;;;
2020/02/18 04:13:47;;;;;;;0.8;0.8;;;;;;;4.57;75.34375;96017.69;;;;
2020/02/18 04:14:48;;;;;;;0.8;0.8;;;;;;;4.57;75.34375;96017.69;;;;
2020/02/18 04:15:48;;;;;;;0.8;0.8;;;;;;;4.57;75.34375;96017.69;;;;
2020/02/18 04:16:49;;;;;;;0.8;0.8;;;;;;;4.57;75.34375;96017.69;;;;
2020/02/18 04:17:49;;;;;;;0.8;0.8;;;;;;;4.57;75.34375;96017.69;;;;
2020/02/18 04:18:49;;;;;;;0.8;0.8;;;;;;;4.57;75.34375;96017.69;;;;
2020/02/18 04:19:50;;;;;;;0.8;0.8;;;;;;;4.57;75.34375;96017.69;;;;
2020/02/18 04:20:50;;;;;;;0.8;0.8;;;;;;;4.57;75.34375;96017.69;;;;
2020/02/18 04:21:51;;;;;;;0.8;0.8;;;;;;;4.57;75.34375;96017.69;;;;
2020/02/18 04:22:51;;;;;;;2.7;1.1;;;;;;;4.41;75.71777;96031.62;;;;
2020/02/18 04:23:52;;;;;;;2.7;1.1;;;;;;;4.41;75.71777;96031.62;;;;
2020/02/18 04:24:52;;;;;;;2.7;1.1;;;;;;;4.41;75.71777;96031.62;;;;
2020/02/18 04:25:52;;;;;;;2.7;1.1;;;;;;;4.41;75.71777;96031.62;;;;
2020/02/18 04:26:55;;;;;;;2.7;1.1;;;;;;;4.41;75.71777;96031.62;;;;
2020/02/18 04:27:56;;;;;;;2.7;1.1;;;;;;;4.41;75.71777;96031.62;;;;
2020/02/18 04:28:57;;;;;;;2.7;1.1;;;;;;;4.41;75.71777;96031.62;;;;
2020/02/18 04:29:57;;;;;;;2.7;1.1;;;;;;;4.41;75.71777;96031.62;;;;
2020/02/18 04:31:00;;;;;;;2.7;1.1;;;;;;;4.41;75.71777;96031.62;;;;
2020/02/18 04:32:00;;;;;;;2.7;1.1;;;;;;;4.41;75.71777;96031.62;;;;
2020/02/18 04:33:01;;;;;;;2.7;1.1;;;;;;;4.41;75.71777;96031.62;;;;
2020/02/18 04:34:04;;;;;;;2.45;1.2;;;;;;;4.26;76.15527;96036.11;;;;
2020/02/18 04:35:34;;;;;;;2.45;1.2;;;;;;;4.26;76.15527;96036.11;;;;
2020/02/18 04:36:35;;;;;;;2.45;1.2;;;;;;;4.26;76.15527;96036.11;;;;
2020/02/18 04:37:35;;;;;;;2.45;1.2;;;;;;;4.26;76.15527;96036.11;;;;
2020/02/18 04:38:36;;;;;;;2.45;1.2;;;;;;;4.26;76.15527;96036.11;;;;
2020/02/18 04:39:36;;;;;;;2.45;1.2;;;;;;;4.26;76.15527;96036.11;;;;
2020/02/18 04:40:37;;;;;;;2.45;1.2;;;;;;;4.26;76.15527;96036.11;;;;
2020/02/18 04:41:37;;;;;;;2.45;1.2;;;;;;;4.26;76.15527;96036.11;;;;
2020/02/18 04:42:38;;;;;;;2.45;1.2;;;;;;;4.26;76.15527;96036.11;;;;
2020/02/18 04:43:38;;;;;;;2.45;1.2;;;;;;;4.26;76.15527;96036.11;;;;
2020/02/18 04:44:39;;;;;;;1.4;0.9;;;;;;;4.07;76.60449;96028.55;;;;
2020/02/18 04:46:51;;;;;;;1.4;0.9;;;;;;;4.07;76.60449;96028.55;;;;
2020/02/18 04:48:19;;;;;;;1.4;0.9;;;;;;;4.07;76.60449;96028.55;;;;
2020/02/18 04:49:22;;;;;;;1.4;0.9;;;;;;;4.07;76.60449;96028.55;;;;
2020/02/18 04:50:23;;;;;;;1.4;0.9;;;;;;;4.07;76.60449;96028.55;;;;
2020/02/18 04:51:24;;;;;;;1.4;0.9;;;;;;;4.07;76.60449;96028.55;;;;
2020/02/18 04:52:24;;;;;;;1.4;0.9;;;;;;;4.07;76.60449;96028.55;;;;
2020/02/18 04:53:25;;;;;;;1.4;0.9;;;;;;;4.07;76.60449;96028.55;;;;
2020/02/18 04:54:25;;;;;;;1.4;0.9;;;;;;;4.07;76.60449;96028.55;;;;
2020/02/18 04:55:26;;;;;;;4.35;1.2;;;;;;;4;76.97168;96032.53;;;;
2020/02/18 04:56:26;;;;;;;4.35;1.2;;;;;;;4;76.97168;96032.53;;;;
2020/02/18 04:57:27;;;;;;;4.35;1.2;;;;;;;4;76.97168;96032.53;;;;
2020/02/18 04:58:27;;;;;;;4.35;1.2;;;;;;;4;76.97168;96032.53;;;;
2020/02/18 04:59:28;;;;;;;4.35;1.2;;;;;;;4;76.97168;96032.53;;;;
2020/02/18 05:00:28;;;;;;;4.35;1.2;;;;;;;4;76.97168;96032.53;;;;
2020/02/18 05:01:29;;;;;;;4.35;1.2;;;;;;;4;76.97168;96032.53;;;;
2020/02/18 05:02:30;;;;;;;4.35;1.2;;;;;;;4;76.97168;96032.53;;;;
2020/02/18 05:03:30;;;;;;;4.35;1.2;;;;;;;4;76.97168;96032.53;;;;
2020/02/18 05:04:31;;;;;;;4.35;1.2;;;;;;;4;76.97168;96032.53;;;;
2020/02/18 05:05:31;;;;;;;2.4;1.1;;;;;;;3.89;77.29883;96028.42;;;;
2020/02/18 05:06:32;;;;;;;2.4;1.1;;;;;;;3.89;77.29883;96028.42;;;;
2020/02/18 05:07:32;;;;;;;2.4;1.1;;;;;;;3.89;77.29883;96028.42;;;;
2020/02/18 05:08:33;;;;;;;2.4;1.1;;;;;;;3.89;77.29883;96028.42;;;;
2020/02/18 05:09:33;;;;;;;2.4;1.1;;;;;;;3.89;77.29883;96028.42;;;;
2020/02/18 05:10:33;;;;;;;2.4;1.1;;;;;;;3.89;77.29883;96028.42;;;;
2020/02/18 05:11:34;;;;;;;2.4;1.1;;;;;;;3.89;77.29883;96028.42;;;;
2020/02/18 05:12:34;;;;;;;2.4;1.1;;;;;;;3.89;77.29883;96028.42;;;;
2020/02/18 05:13:35;;;;;;;2.4;1.1;;;;;;;3.89;77.29883;96028.42;;;;
2020/02/18 05:14:35;;;;;;;2.4;1.1;;;;;;;3.89;77.29883;96028.42;;;;
2020/02/18 05:15:36;;;;;;;2.4;1.1;;;;;;;3.89;77.29883;96028.42;;;;
2020/02/18 05:16:36;;;;;;;4.1;1.25;;;;;;;3.9;77.42871;96031.02;;;;
2020/02/18 05:17:37;;;;;;;4.1;1.25;;;;;;;3.9;77.42871;96031.02;;;;
2020/02/18 05:18:37;;;;;;;4.1;1.25;;;;;;;3.9;77.42871;96031.02;;;;
2020/02/18 05:19:37;;;;;;;4.1;1.25;;;;;;;3.9;77.42871;96031.02;;;;
2020/02/18 05:20:38;;;;;;;4.1;1.25;;;;;;;3.9;77.42871;96031.02;;;;
2020/02/18 05:21:38;;;;;;;4.1;1.25;;;;;;;3.9;77.42871;96031.02;;;;
2020/02/18 05:22:39;;;;;;;4.1;1.25;;;;;;;3.9;77.42871;96031.02;;;;
2020/02/18 05:23:39;;;;;;;4.1;1.25;;;;;;;3.9;77.42871;96031.02;;;;
2020/02/18 05:24:40;;;;;;;4.1;1.25;;;;;;;3.9;77.42871;96031.02;;;;
2020/02/18 05:25:40;;;;;;;4.1;1.25;;;;;;;3.9;77.42871;96031.02;;;;
2020/02/18 05:26:40;;;;;;;2.2;1.35;;;;;;;4.11;77.16113;96031.2;;;;
2020/02/18 05:27:41;;;;;;;2.2;1.35;;;;;;;4.11;77.16113;96031.2;;;;
2020/02/18 05:28:41;;;;;;;2.2;1.35;;;;;;;4.11;77.16113;96031.2;;;;
2020/02/18 05:29:42;;;;;;;2.2;1.35;;;;;;;4.11;77.16113;96031.2;;;;
2020/02/18 05:30:42;;;;;;;2.2;1.35;;;;;;;4.11;77.16113;96031.2;;;;
2020/02/18 05:31:43;;;;;;;2.2;1.35;;;;;;;4.11;77.16113;96031.2;;;;
2020/02/18 05:32:43;;;;;;;2.2;1.35;;;;;;;4.11;77.16113;96031.2;;;;
2020/02/18 05:33:44;;;;;;;2.2;1.35;;;;;;;4.11;77.16113;96031.2;;;;
2020/02/18 05:34:44;;;;;;;2.2;1.35;;;;;;;4.11;77.16113;96031.2;;;;
2020/02/18 05:35:45;;;;;;;2.2;1.35;;;;;;;4.11;77.16113;96031.2;;;;
2020/02/18 05:36:45;;;;;;;2.2;1.35;;;;;;;4.11;77.16113;96031.2;;;;
2020/02/18 05:37:46;;;;;;;3.5;1.1;;;;;;;4.54;76.33008;96041.3;;;;
2020/02/18 05:38:46;;;;;;;3.5;1.1;;;;;;;4.54;76.33008;96041.3;;;;
2020/02/18 05:39:46;;;;;;;3.5;1.1;;;;;;;4.54;76.33008;96041.3;;;;
2020/02/18 05:40:47;;;;;;;3.5;1.1;;;;;;;4.54;76.33008;96041.3;;;;
2020/02/18 05:41:47;;;;;;;3.5;1.1;;;;;;;4.54;76.33008;96041.3;;;;
2020/02/18 05:42:48;;;;;;;3.5;1.1;;;;;;;4.54;76.33008;96041.3;;;;
2020/02/18 05:43:48;;;;;;;3.5;1.1;;;;;;;4.54;76.33008;96041.3;;;;
2020/02/18 05:44:49;;;;;;;3.5;1.1;;;;;;;4.54;76.33008;96041.3;;;;
2020/02/18 05:45:49;;;;;;;3.5;1.1;;;;;;;4.54;76.33008;96041.3;;;;
2020/02/18 05:46:50;;;;;;;3.5;1.1;;;;;;;4.54;76.33008;96041.3;;;;
2020/02/18 05:47:50;;;;;;;3.8;1.1;;;;;;;4.82;75.28223;96041.05;;;;
2020/02/18 05:48:51;;;;;;;3.8;1.1;;;;;;;4.82;75.28223;96041.05;;;;
2020/02/18 05:49:51;;;;;;;3.8;1.1;;;;;;;4.82;75.28223;96041.05;;;;
2020/02/18 05:50:52;;;;;;;3.8;1.1;;;;;;;4.82;75.28223;96041.05;;;;
2020/02/18 05:51:52;;;;;;;3.8;1.1;;;;;;;4.82;75.28223;96041.05;;;;
2020/02/18 05:52:52;;;;;;;3.8;1.1;;;;;;;4.82;75.28223;96041.05;;;;
2020/02/18 05:53:53;;;;;;;3.8;1.1;;;;;;;4.82;75.28223;96041.05;;;;
2020/02/18 05:54:53;;;;;;;3.8;1.1;;;;;;;4.82;75.28223;96041.05;;;;
2020/02/18 05:55:54;;;;;;;3.8;1.1;;;;;;;4.82;75.28223;96041.05;;;;
2020/02/18 05:56:54;;;;;;;3.8;1.1;;;;;;;4.82;75.28223;96041.05;;;;
2020/02/18 05:57:55;;;;;;;3.8;1.1;;;;;;;4.82;75.28223;96041.05;;;;
2020/02/18 05:58:55;;;;;;;4.5;1.4;;;;;;;5.05;74.6582;96054.71;;;;
2020/02/18 05:59:55;;;;;;;4.5;1.4;;;;;;;5.05;74.6582;96054.71;;;;
2020/02/18 06:00:56;;;;;;;4.5;1.4;;;;;;;5.05;74.6582;96054.71;;;;
2020/02/18 06:01:56;;;;;;;4.5;1.4;;;;;;;5.05;74.6582;96054.71;;;;
2020/02/18 06:02:57;;;;;;;4.5;1.4;;;;;;;5.05;74.6582;96054.71;;;;
2020/02/18 06:03:57;;;;;;;4.5;1.4;;;;;;;5.05;74.6582;96054.71;;;;
2020/02/18 06:04:58;;;;;;;4.5;1.4;;;;;;;5.05;74.6582;96054.71;;;;
2020/02/18 06:05:58;;;;;;;4.5;1.4;;;;;;;5.05;74.6582;96054.71;;;;
2020/02/18 06:06:59;;;;;;;4.5;1.4;;;;;;;5.05;74.6582;96054.71;;;;
2020/02/18 06:07:59;;;;;;;4.5;1.4;;;;;;;5.05;74.6582;96054.71;;;;
2020/02/18 06:08:59;;;;;;;3.3;1.2;;;;;;;5.2;74.4082;96058.7;;;;
2020/02/18 06:10:00;;;;;;;3.3;1.2;;;;;;;5.2;74.4082;96058.7;;;;
2020/02/18 06:11:00;;;;;;;3.3;1.2;;;;;;;5.2;74.4082;96058.7;;;;
2020/02/18 06:12:01;;;;;;;3.3;1.2;;;;;;;5.2;74.4082;96058.7;;;;
2020/02/18 06:13:01;;;;;;;3.3;1.2;;;;;;;5.2;74.4082;96058.7;;;;
2020/02/18 06:14:02;;;;;;;3.3;1.2;;;;;;;5.2;74.4082;96058.7;;;;
2020/02/18 06:15:03;;;;;;;3.3;1.2;;;;;;;5.2;74.4082;96058.7;;;;
2020/02/18 06:16:47;;;;;;;3.3;1.2;;;;;;;5.2;74.4082;96058.7;;;;
2020/02/18 06:17:55;;;;;;;3.3;1.2;;;;;;;5.2;74.4082;96058.7;;;;
2020/02/18 06:19:02;;;;;;;3.3;1.2;;;;;;;5.2;74.4082;96058.7;;;;
2020/02/18 06:20:13;;;;;;;3.25;1.2;;;;;;;5.34;73.9375;96067.66;;;;
2020/02/18 06:21:14;;;;;;;3.25;1.2;;;;;;;5.34;73.9375;96067.66;;;;
2020/02/18 06:22:14;;;;;;;3.25;1.2;;;;;;;5.34;73.9375;96067.66;;;;
2020/02/18 06:23:15;;;;;;;3.25;1.2;;;;;;;5.34;73.9375;96067.66;;;;
2020/02/18 06:24:15;;;;;;;3.25;1.2;;;;;;;5.34;73.9375;96067.66;;;;